sensor_id;sensor_type;location;lat;lon;timestamp;temperature;humidity
5962;DHT22;3007;50.770;0.250;2022-09-27T00:01:45;10.50;99.90
5962;DHT22;3007;50.770;0.250;2022-09-27T00:04:12;10.50;99.90
5962;DHT22;3007;50.770;0.250;2022-09-27T00:06:38;10.50;99.90
5962;DHT22;3007;50.770;0.250;2022-09-27T00:09:05;10.50;99.90
5962;DHT22;3007;50.770;0.250;2022-09-27T00:11:34;10.40;99.90
5962;DHT22;3007;50.770;0.250;2022-09-27T00:14:03;10.40;99.90
5962;DHT22;3007;50.770;0.250;2022-09-27T00:16:33;10.50;99.90
5962;DHT22;3007;50.770;0.250;2022-09-27T00:19:02;10.40;99.90
5962;DHT22;3007;50.770;0.250;2022-09-27T00:21:30;10.40;99.90
5962;DHT22;3007;50.770;0.250;2022-09-27T00:23:57;10.40;99.90
5962;DHT22;3007;50.770;0.250;2022-09-27T00:26:25;10.40;99.90
5962;DHT22;3007;50.770;0.250;2022-09-27T00:28:52;10.30;99.90
5962;DHT22;3007;50.770;0.250;2022-09-27T00:31:22;10.30;99.90
5962;DHT22;3007;50.770;0.250;2022-09-27T00:33:50;10.30;99.90
5962;DHT22;3007;50.770;0.250;2022-09-27T00:36:18;10.30;99.90
5962;DHT22;3007;50.770;0.250;2022-09-27T00:38:45;10.30;99.90
5962;DHT22;3007;50.770;0.250;2022-09-27T00:41:14;10.30;99.90
5962;DHT22;3007;50.770;0.250;2022-09-27T00:43:45;10.30;99.90
5962;DHT22;3007;50.770;0.250;2022-09-27T00:46:15;10.30;99.90
5962;DHT22;3007;50.770;0.250;2022-09-27T00:48:46;10.30;99.90
5962;DHT22;3007;50.770;0.250;2022-09-27T00:51:14;10.40;99.90
5962;DHT22;3007;50.770;0.250;2022-09-27T00:53:44;10.40;99.90
5962;DHT22;3007;50.770;0.250;2022-09-27T00:56:17;10.40;99.90
5962;DHT22;3007;50.770;0.250;2022-09-27T00:58:47;10.40;99.90
5962;DHT22;3007;50.770;0.250;2022-09-27T01:01:16;10.50;99.90
5962;DHT22;3007;50.770;0.250;2022-09-27T01:03:48;10.40;99.90
5962;DHT22;3007;50.770;0.250;2022-09-27T01:06:20;10.40;99.90
5962;DHT22;3007;50.770;0.250;2022-09-27T01:08:48;10.40;99.90
5962;DHT22;3007;50.770;0.250;2022-09-27T01:11:24;10.40;99.90
5962;DHT22;3007;50.770;0.250;2022-09-27T01:14:07;10.40;99.90
5962;DHT22;3007;50.770;0.250;2022-09-27T01:16:42;10.30;99.90
5962;DHT22;3007;50.770;0.250;2022-09-27T01:19:24;10.30;99.90
5962;DHT22;3007;50.770;0.250;2022-09-27T01:22:03;10.20;99.90
5962;DHT22;3007;50.770;0.250;2022-09-27T01:24:54;10.20;99.90
5962;DHT22;3007;50.770;0.250;2022-09-27T01:28:01;10.20;99.90
5962;DHT22;3007;50.770;0.250;2022-09-27T01:30:39;10.10;99.90
5962;DHT22;3007;50.770;0.250;2022-09-27T01:33:17;10.20;99.90
5962;DHT22;3007;50.770;0.250;2022-09-27T01:35:56;10.00;99.90
5962;DHT22;3007;50.770;0.250;2022-09-27T01:38:33;10.00;99.90
5962;DHT22;3007;50.770;0.250;2022-09-27T01:41:09;9.90;99.90
5962;DHT22;3007;50.770;0.250;2022-09-27T01:43:42;9.90;99.90
5962;DHT22;3007;50.770;0.250;2022-09-27T01:46:14;9.80;99.90
5962;DHT22;3007;50.770;0.250;2022-09-27T01:48:45;9.80;99.90
5962;DHT22;3007;50.770;0.250;2022-09-27T01:51:16;9.70;99.90
5962;DHT22;3007;50.770;0.250;2022-09-27T01:53:46;9.70;99.90
5962;DHT22;3007;50.770;0.250;2022-09-27T01:56:16;9.60;99.90
5962;DHT22;3007;50.770;0.250;2022-09-27T01:58:47;9.60;99.90
5962;DHT22;3007;50.770;0.250;2022-09-27T02:01:19;9.60;99.90
5962;DHT22;3007;50.770;0.250;2022-09-27T02:03:49;9.60;99.90
5962;DHT22;3007;50.770;0.250;2022-09-27T02:06:19;9.60;99.90
5962;DHT22;3007;50.770;0.250;2022-09-27T02:08:51;9.50;99.90
5962;DHT22;3007;50.770;0.250;2022-09-27T02:11:19;9.50;99.90
5962;DHT22;3007;50.770;0.250;2022-09-27T02:13:52;9.50;99.90
5962;DHT22;3007;50.770;0.250;2022-09-27T02:16:27;9.50;99.90
5962;DHT22;3007;50.770;0.250;2022-09-27T02:19:01;9.40;99.90
5962;DHT22;3007;50.770;0.250;2022-09-27T02:21:41;9.40;99.90
5962;DHT22;3007;50.770;0.250;2022-09-27T02:24:14;9.40;99.90
5962;DHT22;3007;50.770;0.250;2022-09-27T02:26:48;9.30;99.90
5962;DHT22;3007;50.770;0.250;2022-09-27T02:29:22;9.30;99.90
5962;DHT22;3007;50.770;0.250;2022-09-27T02:31:51;9.20;99.90
5962;DHT22;3007;50.770;0.250;2022-09-27T02:34:21;9.20;99.90
5962;DHT22;3007;50.770;0.250;2022-09-27T02:36:49;9.20;99.90
5962;DHT22;3007;50.770;0.250;2022-09-27T02:39:18;9.20;99.90
5962;DHT22;3007;50.770;0.250;2022-09-27T02:41:45;9.20;99.90
5962;DHT22;3007;50.770;0.250;2022-09-27T02:44:14;9.10;99.90
5962;DHT22;3007;50.770;0.250;2022-09-27T02:47:09;9.20;99.90
5962;DHT22;3007;50.770;0.250;2022-09-27T02:49:47;9.20;99.90
5962;DHT22;3007;50.770;0.250;2022-09-27T02:52:26;9.20;99.90
5962;DHT22;3007;50.770;0.250;2022-09-27T02:55:04;9.20;99.90
5962;DHT22;3007;50.770;0.250;2022-09-27T02:57:40;9.10;99.90
5962;DHT22;3007;50.770;0.250;2022-09-27T03:00:15;9.10;99.90
5962;DHT22;3007;50.770;0.250;2022-09-27T03:02:50;9.00;99.90
5962;DHT22;3007;50.770;0.250;2022-09-27T03:05:21;9.00;99.90
5962;DHT22;3007;50.770;0.250;2022-09-27T03:07:49;9.00;99.90
5962;DHT22;3007;50.770;0.250;2022-09-27T03:10:17;8.90;99.90
5962;DHT22;3007;50.770;0.250;2022-09-27T03:12:45;8.90;99.90
5962;DHT22;3007;50.770;0.250;2022-09-27T03:15:15;8.90;99.90
5962;DHT22;3007;50.770;0.250;2022-09-27T03:17:42;8.90;99.90
5962;DHT22;3007;50.770;0.250;2022-09-27T03:20:11;8.90;99.90
5962;DHT22;3007;50.770;0.250;2022-09-27T03:22:37;8.90;99.90
5962;DHT22;3007;50.770;0.250;2022-09-27T03:25:05;8.90;99.90
5962;DHT22;3007;50.770;0.250;2022-09-27T03:27:32;8.90;99.90
5962;DHT22;3007;50.770;0.250;2022-09-27T03:29:59;8.80;99.90
5962;DHT22;3007;50.770;0.250;2022-09-27T03:32:26;8.90;99.90
5962;DHT22;3007;50.770;0.250;2022-09-27T03:34:53;8.90;99.90
5962;DHT22;3007;50.770;0.250;2022-09-27T03:37:22;8.90;99.90
5962;DHT22;3007;50.770;0.250;2022-09-27T03:39:49;8.90;99.90
5962;DHT22;3007;50.770;0.250;2022-09-27T03:42:16;8.90;99.90
5962;DHT22;3007;50.770;0.250;2022-09-27T03:44:43;9.00;99.90
5962;DHT22;3007;50.770;0.250;2022-09-27T03:47:10;9.00;99.90
5962;DHT22;3007;50.770;0.250;2022-09-27T03:49:37;9.10;99.90
5962;DHT22;3007;50.770;0.250;2022-09-27T03:52:04;9.00;99.90
5962;DHT22;3007;50.770;0.250;2022-09-27T03:54:32;9.00;99.90
5962;DHT22;3007;50.770;0.250;2022-09-27T03:56:59;9.10;99.90
5962;DHT22;3007;50.770;0.250;2022-09-27T03:59:26;9.10;99.90
5962;DHT22;3007;50.770;0.250;2022-09-27T04:01:53;9.10;99.90
5962;DHT22;3007;50.770;0.250;2022-09-27T04:04:20;9.10;99.90
5962;DHT22;3007;50.770;0.250;2022-09-27T04:06:48;9.10;99.90
5962;DHT22;3007;50.770;0.250;2022-09-27T04:09:15;9.10;99.90
5962;DHT22;3007;50.770;0.250;2022-09-27T04:11:43;9.20;99.90
5962;DHT22;3007;50.770;0.250;2022-09-27T04:14:10;9.20;99.90
5962;DHT22;3007;50.770;0.250;2022-09-27T04:16:38;9.30;99.90
5962;DHT22;3007;50.770;0.250;2022-09-27T04:19:05;9.30;99.90
5962;DHT22;3007;50.770;0.250;2022-09-27T04:21:33;9.30;99.90
5962;DHT22;3007;50.770;0.250;2022-09-27T04:24:00;9.40;99.90
5962;DHT22;3007;50.770;0.250;2022-09-27T04:26:27;9.40;99.90
5962;DHT22;3007;50.770;0.250;2022-09-27T04:28:55;9.40;99.90
5962;DHT22;3007;50.770;0.250;2022-09-27T04:31:22;9.40;99.90
5962;DHT22;3007;50.770;0.250;2022-09-27T04:33:51;9.40;99.90
5962;DHT22;3007;50.770;0.250;2022-09-27T04:36:21;9.40;99.90
5962;DHT22;3007;50.770;0.250;2022-09-27T04:38:54;9.30;99.90
5962;DHT22;3007;50.770;0.250;2022-09-27T04:41:22;9.30;99.90
5962;DHT22;3007;50.770;0.250;2022-09-27T04:43:49;9.30;99.90
5962;DHT22;3007;50.770;0.250;2022-09-27T04:46:18;9.30;99.90
5962;DHT22;3007;50.770;0.250;2022-09-27T04:48:46;9.30;99.90
5962;DHT22;3007;50.770;0.250;2022-09-27T04:51:13;9.20;99.90
5962;DHT22;3007;50.770;0.250;2022-09-27T04:53:42;9.20;99.90
5962;DHT22;3007;50.770;0.250;2022-09-27T04:56:09;9.20;99.90
5962;DHT22;3007;50.770;0.250;2022-09-27T04:58:37;9.10;99.90
5962;DHT22;3007;50.770;0.250;2022-09-27T05:01:05;9.10;99.90
5962;DHT22;3007;50.770;0.250;2022-09-27T05:03:35;9.00;99.90
5962;DHT22;3007;50.770;0.250;2022-09-27T05:06:02;9.00;99.90
5962;DHT22;3007;50.770;0.250;2022-09-27T05:08:29;9.00;99.90
5962;DHT22;3007;50.770;0.250;2022-09-27T05:10:56;9.10;99.90
5962;DHT22;3007;50.770;0.250;2022-09-27T05:13:23;9.10;99.90
5962;DHT22;3007;50.770;0.250;2022-09-27T05:15:50;9.20;99.90
5962;DHT22;3007;50.770;0.250;2022-09-27T05:18:17;9.20;99.90
5962;DHT22;3007;50.770;0.250;2022-09-27T05:20:46;9.30;99.90
5962;DHT22;3007;50.770;0.250;2022-09-27T05:23:13;9.30;99.90
5962;DHT22;3007;50.770;0.250;2022-09-27T05:25:40;9.30;99.90
5962;DHT22;3007;50.770;0.250;2022-09-27T05:28:07;9.40;99.90
5962;DHT22;3007;50.770;0.250;2022-09-27T05:30:34;9.40;99.90
5962;DHT22;3007;50.770;0.250;2022-09-27T05:33:02;9.40;99.90
5962;DHT22;3007;50.770;0.250;2022-09-27T05:35:29;9.40;99.90
5962;DHT22;3007;50.770;0.250;2022-09-27T05:38:00;9.40;99.90
5962;DHT22;3007;50.770;0.250;2022-09-27T05:40:27;9.40;99.90
5962;DHT22;3007;50.770;0.250;2022-09-27T05:42:55;9.40;99.90
5962;DHT22;3007;50.770;0.250;2022-09-27T05:45:23;9.50;99.90
5962;DHT22;3007;50.770;0.250;2022-09-27T05:47:54;9.50;99.90
5962;DHT22;3007;50.770;0.250;2022-09-27T05:50:22;9.50;99.90
5962;DHT22;3007;50.770;0.250;2022-09-27T05:52:52;9.50;99.90
5962;DHT22;3007;50.770;0.250;2022-09-27T05:55:21;9.50;99.90
5962;DHT22;3007;50.770;0.250;2022-09-27T05:57:56;9.50;99.90
5962;DHT22;3007;50.770;0.250;2022-09-27T06:00:26;9.50;99.90
5962;DHT22;3007;50.770;0.250;2022-09-27T06:02:54;9.60;99.90
5962;DHT22;3007;50.770;0.250;2022-09-27T06:05:22;9.60;99.90
5962;DHT22;3007;50.770;0.250;2022-09-27T06:07:49;9.60;99.90
5962;DHT22;3007;50.770;0.250;2022-09-27T06:10:17;9.60;99.90
5962;DHT22;3007;50.770;0.250;2022-09-27T06:12:46;9.70;99.90
5962;DHT22;3007;50.770;0.250;2022-09-27T06:15:13;9.70;99.90
5962;DHT22;3007;50.770;0.250;2022-09-27T06:17:40;9.70;99.90
5962;DHT22;3007;50.770;0.250;2022-09-27T06:20:07;9.80;99.90
5962;DHT22;3007;50.770;0.250;2022-09-27T06:22:35;9.80;99.90
5962;DHT22;3007;50.770;0.250;2022-09-27T06:25:03;9.80;99.90
5962;DHT22;3007;50.770;0.250;2022-09-27T06:27:34;9.90;99.90
5962;DHT22;3007;50.770;0.250;2022-09-27T06:30:02;9.90;99.90
5962;DHT22;3007;50.770;0.250;2022-09-27T06:32:29;10.00;99.90
5962;DHT22;3007;50.770;0.250;2022-09-27T06:34:57;10.00;99.90
5962;DHT22;3007;50.770;0.250;2022-09-27T06:37:24;10.10;99.90
5962;DHT22;3007;50.770;0.250;2022-09-27T06:39:52;10.10;99.90
5962;DHT22;3007;50.770;0.250;2022-09-27T06:42:19;10.10;99.90
5962;DHT22;3007;50.770;0.250;2022-09-27T06:44:46;10.20;99.90
5962;DHT22;3007;50.770;0.250;2022-09-27T06:47:16;10.20;99.90
5962;DHT22;3007;50.770;0.250;2022-09-27T06:49:43;10.20;99.90
5962;DHT22;3007;50.770;0.250;2022-09-27T06:52:10;10.20;99.90
5962;DHT22;3007;50.770;0.250;2022-09-27T06:54:37;10.30;99.90
5962;DHT22;3007;50.770;0.250;2022-09-27T06:57:04;10.30;99.90
5962;DHT22;3007;50.770;0.250;2022-09-27T06:59:34;10.30;99.90
5962;DHT22;3007;50.770;0.250;2022-09-27T07:02:20;10.40;99.90
5962;DHT22;3007;50.770;0.250;2022-09-27T07:04:47;10.50;99.90
5962;DHT22;3007;50.770;0.250;2022-09-27T07:07:15;10.60;99.90
5962;DHT22;3007;50.770;0.250;2022-09-27T07:09:45;10.60;99.90
5962;DHT22;3007;50.770;0.250;2022-09-27T07:12:12;10.60;99.90
5962;DHT22;3007;50.770;0.250;2022-09-27T07:14:39;10.70;99.90
5962;DHT22;3007;50.770;0.250;2022-09-27T07:17:06;10.80;99.90
5962;DHT22;3007;50.770;0.250;2022-09-27T07:19:34;10.90;99.90
5962;DHT22;3007;50.770;0.250;2022-09-27T07:22:02;10.90;99.90
5962;DHT22;3007;50.770;0.250;2022-09-27T07:24:29;10.90;99.90
5962;DHT22;3007;50.770;0.250;2022-09-27T07:26:56;10.90;99.90
5962;DHT22;3007;50.770;0.250;2022-09-27T07:29:23;11.10;99.90
5962;DHT22;3007;50.770;0.250;2022-09-27T07:31:50;11.40;99.90
5962;DHT22;3007;50.770;0.250;2022-09-27T07:34:17;11.70;99.90
5962;DHT22;3007;50.770;0.250;2022-09-27T07:36:48;12.10;99.90
5962;DHT22;3007;50.770;0.250;2022-09-27T07:39:15;12.20;99.90
5962;DHT22;3007;50.770;0.250;2022-09-27T07:41:46;12.50;99.90
5962;DHT22;3007;50.770;0.250;2022-09-27T07:44:13;12.80;99.90
5962;DHT22;3007;50.770;0.250;2022-09-27T07:46:41;13.00;99.90
5962;DHT22;3007;50.770;0.250;2022-09-27T07:49:08;13.30;99.90
5962;DHT22;3007;50.770;0.250;2022-09-27T07:51:35;13.50;99.90
5962;DHT22;3007;50.770;0.250;2022-09-27T07:54:03;13.60;99.90
5962;DHT22;3007;50.770;0.250;2022-09-27T07:56:30;13.70;99.90
5962;DHT22;3007;50.770;0.250;2022-09-27T07:58:57;13.80;99.90
5962;DHT22;3007;50.770;0.250;2022-09-27T08:01:24;13.90;99.90
5962;DHT22;3007;50.770;0.250;2022-09-27T08:03:51;13.90;99.90
5962;DHT22;3007;50.770;0.250;2022-09-27T08:06:18;14.00;99.90
5962;DHT22;3007;50.770;0.250;2022-09-27T08:08:45;14.00;99.90
5962;DHT22;3007;50.770;0.250;2022-09-27T08:11:14;13.90;99.90
5962;DHT22;3007;50.770;0.250;2022-09-27T08:13:44;13.80;99.90
5962;DHT22;3007;50.770;0.250;2022-09-27T08:16:12;13.60;99.90
5962;DHT22;3007;50.770;0.250;2022-09-27T08:18:39;13.40;99.90
5962;DHT22;3007;50.770;0.250;2022-09-27T08:21:06;13.20;99.90
5962;DHT22;3007;50.770;0.250;2022-09-27T08:23:33;13.20;99.90
5962;DHT22;3007;50.770;0.250;2022-09-27T08:26:01;13.20;99.90
5962;DHT22;3007;50.770;0.250;2022-09-27T08:28:32;13.20;99.90
5962;DHT22;3007;50.770;0.250;2022-09-27T08:30:59;13.30;99.90
5962;DHT22;3007;50.770;0.250;2022-09-27T08:33:26;13.30;99.90
5962;DHT22;3007;50.770;0.250;2022-09-27T08:35:53;13.30;99.90
5962;DHT22;3007;50.770;0.250;2022-09-27T08:38:20;13.20;99.90
5962;DHT22;3007;50.770;0.250;2022-09-27T08:40:51;13.30;99.90
5962;DHT22;3007;50.770;0.250;2022-09-27T08:43:32;13.30;99.90
5962;DHT22;3007;50.770;0.250;2022-09-27T08:46:07;13.30;99.90
5962;DHT22;3007;50.770;0.250;2022-09-27T08:48:37;13.30;99.90
5962;DHT22;3007;50.770;0.250;2022-09-27T08:51:06;13.30;99.90
5962;DHT22;3007;50.770;0.250;2022-09-27T08:53:39;13.30;99.90
5962;DHT22;3007;50.770;0.250;2022-09-27T08:56:10;13.20;99.90
5962;DHT22;3007;50.770;0.250;2022-09-27T08:58:42;13.20;99.90
5962;DHT22;3007;50.770;0.250;2022-09-27T09:01:13;13.10;99.90
5962;DHT22;3007;50.770;0.250;2022-09-27T09:03:46;13.10;99.90
5962;DHT22;3007;50.770;0.250;2022-09-27T09:06:19;13.00;99.90
5962;DHT22;3007;50.770;0.250;2022-09-27T09:08:56;13.00;99.90
5962;DHT22;3007;50.770;0.250;2022-09-27T09:11:33;13.00;99.90
5962;DHT22;3007;50.770;0.250;2022-09-27T09:14:33;12.90;99.90
5962;DHT22;3007;50.770;0.250;2022-09-27T09:17:15;13.00;99.90
5962;DHT22;3007;50.770;0.250;2022-09-27T09:19:55;13.00;99.90
5962;DHT22;3007;50.770;0.250;2022-09-27T09:22:38;13.10;99.90
5962;DHT22;3007;50.770;0.250;2022-09-27T09:25:21;13.10;99.90
5962;DHT22;3007;50.770;0.250;2022-09-27T09:27:56;13.20;99.90
5962;DHT22;3007;50.770;0.250;2022-09-27T09:30:30;13.20;99.90
5962;DHT22;3007;50.770;0.250;2022-09-27T09:33:15;13.30;99.90
5962;DHT22;3007;50.770;0.250;2022-09-27T09:35:47;13.30;99.90
5962;DHT22;3007;50.770;0.250;2022-09-27T09:38:19;13.40;99.90
5962;DHT22;3007;50.770;0.250;2022-09-27T09:40:50;13.50;99.90
5962;DHT22;3007;50.770;0.250;2022-09-27T09:43:21;13.60;99.90
5962;DHT22;3007;50.770;0.250;2022-09-27T09:45:54;13.70;99.90
5962;DHT22;3007;50.770;0.250;2022-09-27T09:48:29;13.80;99.90
5962;DHT22;3007;50.770;0.250;2022-09-27T09:51:00;13.80;99.90
5962;DHT22;3007;50.770;0.250;2022-09-27T09:53:35;13.80;99.90
5962;DHT22;3007;50.770;0.250;2022-09-27T09:56:11;13.80;99.90
5962;DHT22;3007;50.770;0.250;2022-09-27T09:58:45;13.90;99.90
5962;DHT22;3007;50.770;0.250;2022-09-27T10:01:18;13.90;99.90
5962;DHT22;3007;50.770;0.250;2022-09-27T10:03:46;14.00;99.90
5962;DHT22;3007;50.770;0.250;2022-09-27T10:06:13;14.00;99.90
5962;DHT22;3007;50.770;0.250;2022-09-27T10:08:41;14.00;99.90
5962;DHT22;3007;50.770;0.250;2022-09-27T10:11:17;13.90;99.90
5962;DHT22;3007;50.770;0.250;2022-09-27T10:13:45;13.80;99.90
5962;DHT22;3007;50.770;0.250;2022-09-27T10:16:16;13.70;99.90
5962;DHT22;3007;50.770;0.250;2022-09-27T10:18:44;13.70;99.90
5962;DHT22;3007;50.770;0.250;2022-09-27T10:21:14;13.80;99.90
5962;DHT22;3007;50.770;0.250;2022-09-27T10:24:03;13.80;99.90
5962;DHT22;3007;50.770;0.250;2022-09-27T10:26:31;13.90;99.90
5962;DHT22;3007;50.770;0.250;2022-09-27T10:29:19;14.00;99.90
5962;DHT22;3007;50.770;0.250;2022-09-27T10:31:49;14.20;99.90
5962;DHT22;3007;50.770;0.250;2022-09-27T10:34:22;14.40;99.90
5962;DHT22;3007;50.770;0.250;2022-09-27T10:37:02;14.70;99.90
5962;DHT22;3007;50.770;0.250;2022-09-27T10:39:30;14.90;99.90
5962;DHT22;3007;50.770;0.250;2022-09-27T10:41:57;15.10;99.90
5962;DHT22;3007;50.770;0.250;2022-09-27T10:44:25;15.20;99.90
5962;DHT22;3007;50.770;0.250;2022-09-27T10:46:57;15.30;99.90
5962;DHT22;3007;50.770;0.250;2022-09-27T10:49:26;15.40;99.90
5962;DHT22;3007;50.770;0.250;2022-09-27T10:51:57;15.40;99.90
5962;DHT22;3007;50.770;0.250;2022-09-27T10:54:26;15.40;99.90
5962;DHT22;3007;50.770;0.250;2022-09-27T10:56:55;15.50;99.90
5962;DHT22;3007;50.770;0.250;2022-09-27T10:59:24;15.50;99.90
5962;DHT22;3007;50.770;0.250;2022-09-27T11:01:53;15.60;99.90
5962;DHT22;3007;50.770;0.250;2022-09-27T11:04:25;15.70;99.90
5962;DHT22;3007;50.770;0.250;2022-09-27T11:07:06;15.70;99.90
5962;DHT22;3007;50.770;0.250;2022-09-27T11:09:49;15.70;99.90
5962;DHT22;3007;50.770;0.250;2022-09-27T11:12:17;15.80;99.90
5962;DHT22;3007;50.770;0.250;2022-09-27T11:14:52;15.70;99.90
5962;DHT22;3007;50.770;0.250;2022-09-27T11:17:26;15.70;99.90
5962;DHT22;3007;50.770;0.250;2022-09-27T11:20:20;15.60;99.90
5962;DHT22;3007;50.770;0.250;2022-09-27T11:23:10;15.40;99.90
5962;DHT22;3007;50.770;0.250;2022-09-27T11:25:49;15.20;99.90
5962;DHT22;3007;50.770;0.250;2022-09-27T11:28:31;15.00;99.90
5962;DHT22;3007;50.770;0.250;2022-09-27T11:31:06;14.90;99.90
5962;DHT22;3007;50.770;0.250;2022-09-27T11:33:49;14.90;99.90
5962;DHT22;3007;50.770;0.250;2022-09-27T11:36:29;14.90;99.90
5962;DHT22;3007;50.770;0.250;2022-09-27T11:39:03;14.80;99.90
5962;DHT22;3007;50.770;0.250;2022-09-27T11:41:41;14.70;99.90
5962;DHT22;3007;50.770;0.250;2022-09-27T11:44:47;14.60;99.90
5962;DHT22;3007;50.770;0.250;2022-09-27T11:47:24;14.50;99.90
5962;DHT22;3007;50.770;0.250;2022-09-27T11:53:04;14.40;99.90
5962;DHT22;3007;50.770;0.250;2022-09-27T11:55:41;14.40;99.90
5962;DHT22;3007;50.770;0.250;2022-09-27T11:58:16;14.40;99.90
5962;DHT22;3007;50.770;0.250;2022-09-27T12:00:56;14.40;99.90
5962;DHT22;3007;50.770;0.250;2022-09-27T12:06:34;14.50;99.90
5962;DHT22;3007;50.770;0.250;2022-09-27T12:09:08;14.50;99.90
5962;DHT22;3007;50.770;0.250;2022-09-27T12:11:41;14.60;99.90
5962;DHT22;3007;50.770;0.250;2022-09-27T12:14:19;14.60;99.90
5962;DHT22;3007;50.770;0.250;2022-09-27T12:16:55;14.50;99.90
5962;DHT22;3007;50.770;0.250;2022-09-27T12:19:33;14.50;99.90
5962;DHT22;3007;50.770;0.250;2022-09-27T12:22:04;14.30;99.90
5962;DHT22;3007;50.770;0.250;2022-09-27T12:24:32;14.20;99.90
5962;DHT22;3007;50.770;0.250;2022-09-27T12:27:12;14.20;99.90
5962;DHT22;3007;50.770;0.250;2022-09-27T12:29:41;14.20;99.90
5962;DHT22;3007;50.770;0.250;2022-09-27T12:32:23;14.20;99.90
5962;DHT22;3007;50.770;0.250;2022-09-27T12:34:56;14.30;99.90
5962;DHT22;3007;50.770;0.250;2022-09-27T12:37:43;14.40;99.90
5962;DHT22;3007;50.770;0.250;2022-09-27T12:40:20;14.40;99.90
5962;DHT22;3007;50.770;0.250;2022-09-27T12:42:53;14.40;99.90
5962;DHT22;3007;50.770;0.250;2022-09-27T12:45:43;14.40;99.90
5962;DHT22;3007;50.770;0.250;2022-09-27T12:48:17;14.40;99.90
5962;DHT22;3007;50.770;0.250;2022-09-27T12:50:51;14.50;99.90
5962;DHT22;3007;50.770;0.250;2022-09-27T12:53:23;14.50;99.90
5962;DHT22;3007;50.770;0.250;2022-09-27T12:56:08;14.50;99.90
5962;DHT22;3007;50.770;0.250;2022-09-27T12:58:50;14.40;99.90
5962;DHT22;3007;50.770;0.250;2022-09-27T13:01:26;14.40;99.90
5962;DHT22;3007;50.770;0.250;2022-09-27T13:04:23;14.40;99.90
5962;DHT22;3007;50.770;0.250;2022-09-27T13:07:06;14.50;99.90
5962;DHT22;3007;50.770;0.250;2022-09-27T13:12:37;14.50;99.90
5962;DHT22;3007;50.770;0.250;2022-09-27T13:15:13;14.60;99.90
5962;DHT22;3007;50.770;0.250;2022-09-27T13:17:50;14.70;99.90
5962;DHT22;3007;50.770;0.250;2022-09-27T13:20:51;14.80;99.90
5962;DHT22;3007;50.770;0.250;2022-09-27T13:26:47;15.10;99.90
5962;DHT22;3007;50.770;0.250;2022-09-27T13:29:29;15.20;99.90
5962;DHT22;3007;50.770;0.250;2022-09-27T13:32:16;15.20;99.90
5962;DHT22;3007;50.770;0.250;2022-09-27T13:34:45;15.10;99.90
5962;DHT22;3007;50.770;0.250;2022-09-27T13:40:27;14.90;99.90
5962;DHT22;3007;50.770;0.250;2022-09-27T13:43:11;14.90;99.90
5962;DHT22;3007;50.770;0.250;2022-09-27T13:45:47;14.90;99.90
5962;DHT22;3007;50.770;0.250;2022-09-27T13:48:18;14.90;99.90
5962;DHT22;3007;50.770;0.250;2022-09-27T13:50:50;15.00;99.90
5962;DHT22;3007;50.770;0.250;2022-09-27T13:53:23;15.00;99.90
5962;DHT22;3007;50.770;0.250;2022-09-27T13:55:52;15.00;99.90
5962;DHT22;3007;50.770;0.250;2022-09-27T13:58:42;15.00;99.90
5962;DHT22;3007;50.770;0.250;2022-09-27T14:01:18;15.10;99.90
5962;DHT22;3007;50.770;0.250;2022-09-27T14:03:53;15.20;99.90
5962;DHT22;3007;50.770;0.250;2022-09-27T14:06:25;15.30;99.90
5962;DHT22;3007;50.770;0.250;2022-09-27T14:08:56;15.30;99.90
5962;DHT22;3007;50.770;0.250;2022-09-27T14:11:25;15.40;99.90
5962;DHT22;3007;50.770;0.250;2022-09-27T14:13:55;15.40;99.90
5962;DHT22;3007;50.770;0.250;2022-09-27T14:16:24;15.50;99.90
5962;DHT22;3007;50.770;0.250;2022-09-27T14:18:56;15.50;99.90
5962;DHT22;3007;50.770;0.250;2022-09-27T14:21:29;15.50;99.90
5962;DHT22;3007;50.770;0.250;2022-09-27T14:27:11;15.30;99.90
5962;DHT22;3007;50.770;0.250;2022-09-27T14:29:42;15.20;99.90
5962;DHT22;3007;50.770;0.250;2022-09-27T14:32:12;15.00;99.90
5962;DHT22;3007;50.770;0.250;2022-09-27T14:34:41;14.90;99.90
5962;DHT22;3007;50.770;0.250;2022-09-27T14:37:23;14.90;99.90
5962;DHT22;3007;50.770;0.250;2022-09-27T14:40:00;14.90;99.90
5962;DHT22;3007;50.770;0.250;2022-09-27T14:42:32;14.80;99.90
5962;DHT22;3007;50.770;0.250;2022-09-27T14:45:05;14.90;99.90
5962;DHT22;3007;50.770;0.250;2022-09-27T14:47:44;14.80;99.90
5962;DHT22;3007;50.770;0.250;2022-09-27T14:50:18;14.90;99.90
5962;DHT22;3007;50.770;0.250;2022-09-27T14:52:45;14.90;99.90
5962;DHT22;3007;50.770;0.250;2022-09-27T14:55:17;15.00;99.90
5962;DHT22;3007;50.770;0.250;2022-09-27T14:57:46;15.00;99.90
5962;DHT22;3007;50.770;0.250;2022-09-27T15:00:19;15.00;99.90
5962;DHT22;3007;50.770;0.250;2022-09-27T15:02:47;15.10;99.90
5962;DHT22;3007;50.770;0.250;2022-09-27T15:05:17;15.10;99.90
5962;DHT22;3007;50.770;0.250;2022-09-27T15:07:45;15.10;99.90
5962;DHT22;3007;50.770;0.250;2022-09-27T15:10:14;15.20;99.90
5962;DHT22;3007;50.770;0.250;2022-09-27T15:12:44;15.30;99.90
5962;DHT22;3007;50.770;0.250;2022-09-27T15:15:16;15.30;99.90
5962;DHT22;3007;50.770;0.250;2022-09-27T15:17:48;15.30;99.90
5962;DHT22;3007;50.770;0.250;2022-09-27T15:20:20;15.30;99.90
5962;DHT22;3007;50.770;0.250;2022-09-27T15:22:49;14.70;99.90
5962;DHT22;3007;50.770;0.250;2022-09-27T15:25:20;15.10;99.90
5962;DHT22;3007;50.770;0.250;2022-09-27T15:27:49;14.80;99.90
5962;DHT22;3007;50.770;0.250;2022-09-27T15:30:20;15.00;99.90
5962;DHT22;3007;50.770;0.250;2022-09-27T15:32:51;15.00;99.90
5962;DHT22;3007;50.770;0.250;2022-09-27T15:35:23;15.00;99.90
5962;DHT22;3007;50.770;0.250;2022-09-27T15:37:50;15.00;99.90
5962;DHT22;3007;50.770;0.250;2022-09-27T15:43:32;14.90;99.90
5962;DHT22;3007;50.770;0.250;2022-09-27T15:46:02;14.80;99.90
5962;DHT22;3007;50.770;0.250;2022-09-27T15:48:31;14.70;99.90
5962;DHT22;3007;50.770;0.250;2022-09-27T15:51:00;14.60;99.90
5962;DHT22;3007;50.770;0.250;2022-09-27T15:53:43;14.50;99.90
5962;DHT22;3007;50.770;0.250;2022-09-27T15:56:13;14.50;99.90
5962;DHT22;3007;50.770;0.250;2022-09-27T15:58:42;14.40;99.90
5962;DHT22;3007;50.770;0.250;2022-09-27T16:01:18;14.30;99.90
5962;DHT22;3007;50.770;0.250;2022-09-27T16:03:49;14.20;99.90
5962;DHT22;3007;50.770;0.250;2022-09-27T16:06:20;14.20;99.90
5962;DHT22;3007;50.770;0.250;2022-09-27T16:08:50;14.10;99.90
5962;DHT22;3007;50.770;0.250;2022-09-27T16:11:16;14.10;99.90
5962;DHT22;3007;50.770;0.250;2022-09-27T16:13:46;14.10;99.90
5962;DHT22;3007;50.770;0.250;2022-09-27T16:16:18;14.10;99.90
5962;DHT22;3007;50.770;0.250;2022-09-27T16:18:46;14.10;99.90
5962;DHT22;3007;50.770;0.250;2022-09-27T16:21:13;14.10;99.90
5962;DHT22;3007;50.770;0.250;2022-09-27T16:23:41;14.10;99.90
5962;DHT22;3007;50.770;0.250;2022-09-27T16:26:07;14.10;99.90
5962;DHT22;3007;50.770;0.250;2022-09-27T16:28:35;14.10;99.90
5962;DHT22;3007;50.770;0.250;2022-09-27T16:31:03;14.10;99.90
5962;DHT22;3007;50.770;0.250;2022-09-27T16:33:32;14.00;99.90
5962;DHT22;3007;50.770;0.250;2022-09-27T16:36:04;14.00;99.90
5962;DHT22;3007;50.770;0.250;2022-09-27T16:38:33;14.00;99.90
5962;DHT22;3007;50.770;0.250;2022-09-27T16:41:00;13.90;99.90
5962;DHT22;3007;50.770;0.250;2022-09-27T16:43:28;13.90;99.90
5962;DHT22;3007;50.770;0.250;2022-09-27T16:46:03;13.90;99.90
5962;DHT22;3007;50.770;0.250;2022-09-27T16:48:31;13.80;99.90
5962;DHT22;3007;50.770;0.250;2022-09-27T16:51:03;13.80;99.90
5962;DHT22;3007;50.770;0.250;2022-09-27T16:53:48;13.80;99.90
5962;DHT22;3007;50.770;0.250;2022-09-27T16:56:15;13.70;99.90
5962;DHT22;3007;50.770;0.250;2022-09-27T16:58:43;13.70;99.90